Riviere-A-Pierre, Canada
Current Conditions -  °F | °C
As of 1:00 PM on Sunday 25 Jan 2015 (Local Time) from CYOY Reporting Station
Overcast Overcast  
Wind Chill: -9°   Ceiling: 2400
Heat Index:   Visibility: 9mi
Dew Point: -6°   Wind: 13mph
Humidity: 56%   Direction: 280°W
Pressure: 29.58"   Gusts: 23mph
Location:  46.98°N, 72.18°W
Report Text: CYOY 251800Z AUTO 28011G20KT 240V330 9SM OVC024 OVC069 OVC078OVC091 M14/M21 A2958 RMK SLP031
Loading
Personal Weather Stations






























Interactive Weather Map New forecast layout! Learn more

10-Day Weather Forecast

Advertisements
Track Severe Weather on mobile